Time;durP1;ratioP1;P1;durP2;ratioP2;P2;SDS_P1;SDS_P2;PMS_P1;PMS_P2;Temp;Humidity;BMP_temperature;BMP_pressure;BME280_temperature;BME280_humidity;BME280_pressure;Samples;Min_cycle;Max_cycle;Signal;HPM_P1;HPM_P2
2023/10/26 00:04:39;;;;;;;2.22;2.03;;;;;;;;;;10325595;28;20516;-76
2023/10/26 00:09:42;;;;;;;2.40;2.20;;;;;;;;;;10334016;28;20069;-76
2023/10/26 00:14:47;;;;;;;2.45;2.25;;;;;;;;;;10329679;28;20098;-76
2023/10/26 00:19:52;;;;;;;3.05;2.65;;;;;;;;;;10328518;28;20038;-76
2023/10/26 00:24:55;;;;;;;3.20;2.70;;;;;;;;;;10335534;28;20681;-76
2023/10/26 00:30:00;;;;;;;3.50;2.70;;;;;;;;;;10326608;28;20057;-76
2023/10/26 00:35:04;;;;;;;2.85;2.45;;;;;;;;;;10338102;28;20121;-76
2023/10/26 00:40:09;;;;;;;2.72;2.50;;;;;;;;;;10313991;28;20491;-76
2023/10/26 00:45:14;;;;;;;3.38;2.75;;;;;;;;;;10322342;28;20045;-76
2023/10/26 00:50:18;;;;;;;3.72;2.85;;;;;;;;;;10315060;28;20046;-76
2023/10/26 00:55:23;;;;;;;3.63;2.60;;;;;;;;;;10308470;28;20639;-76
2023/10/26 01:00:28;;;;;;;3.30;2.47;;;;;;;;;;10330817;28;20050;-76
2023/10/26 01:05:36;;;;;;;4.78;3.70;;;;;;;;;;10324827;28;20050;-76
2023/10/26 01:10:39;;;;;;;;;;;;;;;;;;10313039;28;20061;-76
2023/10/26 01:15:44;;;;;;;4.25;3.67;;;;;;;;;;10309204;28;20561;-76
2023/10/26 01:20:48;;;;;;;3.83;3.42;;;;;;;;;;10311496;28;20101;-75
2023/10/26 01:26:02;;;;;;;4.80;3.75;;;;;;;;;;10310774;28;20054;-75
2023/10/26 01:31:05;;;;;;;4.45;3.80;;;;;;;;;;10322859;28;20038;-76
2023/10/26 01:36:09;;;;;;;4.78;4.28;;;;;;;;;;10326417;28;20129;-75
2023/10/26 01:41:14;;;;;;;5.32;3.92;;;;;;;;;;10329194;28;20049;-75
2023/10/26 01:46:17;;;;;;;7.07;4.45;;;;;;;;;;10293061;28;20673;-75
2023/10/26 01:51:21;;;;;;;6.10;4.57;;;;;;;;;;10308434;28;20038;-76
2023/10/26 01:56:26;;;;;;;5.50;4.28;;;;;;;;;;10311328;28;20053;-76
2023/10/26 02:01:29;;;;;;;5.40;4.50;;;;;;;;;;10304816;28;20049;-75
2023/10/26 02:06:32;;;;;;;5.72;4.97;;;;;;;;;;10314229;28;20105;-76
2023/10/26 02:11:37;;;;;;;5.13;4.55;;;;;;;;;;10330850;28;20385;-75
2023/10/26 02:16:41;;;;;;;6.68;5.32;;;;;;;;;;10320725;28;20046;-76
2023/10/26 02:21:44;;;;;;;5.00;4.45;;;;;;;;;;10316043;28;20401;-76
2023/10/26 02:26:49;;;;;;;5.53;4.53;;;;;;;;;;10339612;28;20042;-76
2023/10/26 02:31:52;;;;;;;6.30;4.00;;;;;;;;;;10329934;28;20047;-76
2023/10/26 02:36:57;;;;;;;4.35;3.95;;;;;;;;;;10331925;28;20531;-76
2023/10/26 02:42:02;;;;;;;5.18;4.25;;;;;;;;;;10333637;28;20452;-76
2023/10/26 02:47:05;;;;;;;5.97;4.72;;;;;;;;;;10323329;28;20046;-76
2023/10/26 02:52:09;;;;;;;7.40;5.30;;;;;;;;;;10337413;28;20042;-76
2023/10/26 02:57:14;;;;;;;5.80;5.20;;;;;;;;;;10331300;28;20050;-76
2023/10/26 03:02:18;;;;;;;6.20;4.93;;;;;;;;;;10342131;28;20138;-75
2023/10/26 03:07:23;;;;;;;5.50;4.97;;;;;;;;;;10329671;28;20100;-75
2023/10/26 03:12:27;;;;;;;8.48;5.10;;;;;;;;;;10315383;28;20057;-75
2023/10/26 03:17:31;;;;;;;6.47;4.43;;;;;;;;;;10338963;28;20050;-76
2023/10/26 03:22:34;;;;;;;5.25;4.75;;;;;;;;;;10340057;28;20054;-75
2023/10/26 03:27:40;;;;;;;4.85;4.18;;;;;;;;;;10318871;28;20050;-75
2023/10/26 03:32:44;;;;;;;4.30;3.90;;;;;;;;;;10339621;28;20047;-75
2023/10/26 03:37:48;;;;;;;4.45;3.75;;;;;;;;;;10329848;28;20047;-77
2023/10/26 03:42:53;;;;;;;5.20;4.00;;;;;;;;;;10335939;28;20109;-76
2023/10/26 03:47:56;;;;;;;5.00;4.03;;;;;;;;;;10338094;28;20389;-75
2023/10/26 03:53:00;;;;;;;5.90;4.55;;;;;;;;;;10330975;28;20050;-76
2023/10/26 03:58:04;;;;;;;5.53;4.35;;;;;;;;;;10335582;28;20094;-75
2023/10/26 04:03:08;;;;;;;4.05;3.38;;;;;;;;;;10329160;28;20058;-75
2023/10/26 04:08:12;;;;;;;4.10;3.65;;;;;;;;;;10320908;28;20047;-75
2023/10/26 04:13:17;;;;;;;4.32;3.10;;;;;;;;;;10332731;28;20039;-75
2023/10/26 04:18:20;;;;;;;3.10;2.80;;;;;;;;;;10334061;28;20504;-76
2023/10/26 04:23:24;;;;;;;3.55;2.97;;;;;;;;;;10321138;28;20105;-75
2023/10/26 04:28:29;;;;;;;3.78;3.30;;;;;;;;;;10318065;28;20057;-75
2023/10/26 04:33:33;;;;;;;3.45;3.03;;;;;;;;;;10318261;28;20420;-75
2023/10/26 04:38:36;;;;;;;4.25;2.88;;;;;;;;;;10326919;28;20571;-75
2023/10/26 04:43:41;;;;;;;3.53;3.20;;;;;;;;;;10331908;28;20136;-75
2023/10/26 04:48:44;;;;;;;3.88;3.40;;;;;;;;;;10330376;28;20065;-75
2023/10/26 04:53:48;;;;;;;3.00;2.70;;;;;;;;;;10326965;28;20054;-75
2023/10/26 04:58:53;;;;;;;3.80;2.97;;;;;;;;;;10330950;28;20327;-75
2023/10/26 05:03:57;;;;;;;3.65;2.55;;;;;;;;;;10325510;28;20053;-75
2023/10/26 05:09:00;;;;;;;3.40;3.10;;;;;;;;;;10329606;28;20500;-75
2023/10/26 05:14:07;;;;;;;3.40;3.10;;;;;;;;;;10332898;28;20112;-75
2023/10/26 05:19:10;;;;;;;4.03;3.60;;;;;;;;;;10333187;28;20097;-75
2023/10/26 05:24:13;;;;;;;5.35;3.13;;;;;;;;;;10322784;28;20061;-75
2023/10/26 05:29:18;;;;;;;3.08;2.78;;;;;;;;;;10326690;28;20062;-75
2023/10/26 05:34:21;;;;;;;3.42;3.03;;;;;;;;;;10325016;28;20046;-75
2023/10/26 05:39:25;;;;;;;2.53;2.00;;;;;;;;;;10300549;28;20050;-75
2023/10/26 05:44:31;;;;;;;2.15;1.88;;;;;;;;;;10328307;28;20059;-75
2023/10/26 05:49:35;;;;;;;2.30;2.10;;;;;;;;;;10322167;28;20046;-75
2023/10/26 05:54:38;;;;;;;2.65;2.42;;;;;;;;;;10333456;28;20065;-75
2023/10/26 05:59:43;;;;;;;3.35;2.90;;;;;;;;;;10336494;28;20110;-76
2023/10/26 06:04:47;;;;;;;2.88;2.10;;;;;;;;;;10317982;28;20033;-75
2023/10/26 06:09:50;;;;;;;3.72;2.58;;;;;;;;;;10321269;28;20109;-75
2023/10/26 06:14:55;;;;;;;4.25;3.00;;;;;;;;;;10330206;28;20113;-75
2023/10/26 06:20:01;;;;;;;2.55;2.35;;;;;;;;;;10329733;28;20046;-75
2023/10/26 06:25:06;;;;;;;3.95;2.90;;;;;;;;;;10315417;28;20524;-75
2023/10/26 06:30:11;;;;;;;2.78;2.58;;;;;;;;;;10330183;28;20053;-75
2023/10/26 06:35:15;;;;;;;2.63;2.17;;;;;;;;;;10344787;28;20128;-75
2023/10/26 06:40:18;;;;;;;3.38;2.60;;;;;;;;;;10330571;28;20089;-75
2023/10/26 06:45:23;;;;;;;3.80;3.40;;;;;;;;;;10330219;28;20050;-75
2023/10/26 06:50:26;;;;;;;3.13;2.83;;;;;;;;;;10331991;28;20061;-75
2023/10/26 06:55:33;;;;;;;2.63;2.42;;;;;;;;;;10338467;28;20049;-75
2023/10/26 07:00:37;;;;;;;2.30;2.10;;;;;;;;;;10333772;28;20050;-75
2023/10/26 07:05:41;;;;;;;2.17;1.98;;;;;;;;;;10326220;28;20057;-75
2023/10/26 07:10:45;;;;;;;3.10;2.50;;;;;;;;;;10313235;28;20065;-75
2023/10/26 07:15:50;;;;;;;3.45;2.05;;;;;;;;;;10331257;28;20046;-75
2023/10/26 07:20:53;;;;;;;2.47;1.98;;;;;;;;;;10329646;28;20054;-75
2023/10/26 07:25:56;;;;;;;1.83;1.55;;;;;;;;;;10332374;28;20419;-75
2023/10/26 07:31:01;;;;;;;1.77;1.10;;;;;;;;;;10334444;28;20038;-75
2023/10/26 07:36:05;;;;;;;2.85;2.20;;;;;;;;;;10341939;28;20058;-75
2023/10/26 07:41:09;;;;;;;2.20;1.80;;;;;;;;;;10330118;28;20106;-75
2023/10/26 07:46:13;;;;;;;2.58;1.70;;;;;;;;;;10342109;23;20042;-75
2023/10/26 07:51:17;;;;;;;5.70;2.75;;;;;;;;;;10327713;28;20101;-75
2023/10/26 07:56:21;;;;;;;2.08;1.83;;;;;;;;;;10332355;28;20054;-75
2023/10/26 08:01:25;;;;;;;2.17;1.60;;;;;;;;;;10328158;28;20423;-75
2023/10/26 08:06:29;;;;;;;1.50;1.40;;;;;;;;;;10328396;28;20054;-76
2023/10/26 08:11:33;;;;;;;3.38;1.60;;;;;;;;;;10330293;28;20050;-75
2023/10/26 08:16:39;;;;;;;1.60;1.30;;;;;;;;;;10329254;28;20050;-77
2023/10/26 08:21:42;;;;;;;2.05;1.50;;;;;;;;;;10324865;28;20073;-77
2023/10/26 08:26:47;;;;;;;1.73;1.58;;;;;;;;;;10326810;28;20108;-77
2023/10/26 08:31:51;;;;;;;1.60;1.50;;;;;;;;;;10326228;28;20038;-77
2023/10/26 08:36:55;;;;;;;1.65;1.55;;;;;;;;;;10327778;28;20089;-77
2023/10/26 08:42:10;;;;;;;2.50;1.70;;;;;;;;;;10328807;28;20046;-77
2023/10/26 08:47:19;;;;;;;1.63;1.20;;;;;;;;;;10334314;28;20050;-77
2023/10/26 08:52:24;;;;;;;2.78;1.58;;;;;;;;;;10326272;28;20768;-77
2023/10/26 08:57:27;;;;;;;2.80;1.75;;;;;;;;;;10324763;28;20420;-77
2023/10/26 09:02:32;;;;;;;2.83;1.98;;;;;;;;;;10305979;28;20050;-77
2023/10/26 09:07:35;;;;;;;1.85;1.20;;;;;;;;;;10330950;28;20084;-77
2023/10/26 09:12:39;;;;;;;1.13;0.98;;;;;;;;;;10324080;28;20049;-77
2023/10/26 09:17:44;;;;;;;1.17;1.00;;;;;;;;;;10328156;28;20106;-77
2023/10/26 09:22:47;;;;;;;1.25;1.15;;;;;;;;;;10333365;28;20051;-77
2023/10/26 09:28:02;;;;;;;1.20;1.05;;;;;;;;;;10309643;28;20503;-77
2023/10/26 09:33:23;;;;;;;1.00;1.00;;;;;;;;;;10334561;28;20098;-76
2023/10/26 09:38:35;;;;;;;2.35;1.10;;;;;;;;;;10337903;28;20082;-76
2023/10/26 09:43:40;;;;;;;1.00;0.90;;;;;;;;;;10334274;28;20049;-77
2023/10/26 09:48:45;;;;;;;1.08;0.90;;;;;;;;;;10335408;28;20578;-76
2023/10/26 09:53:50;;;;;;;3.28;0.68;;;;;;;;;;10335941;28;20042;-77
2023/10/26 09:58:54;;;;;;;2.20;0.80;;;;;;;;;;10318242;28;20102;-77
2023/10/26 10:03:59;;;;;;;0.57;0.52;;;;;;;;;;10345338;28;20045;-76
2023/10/26 10:09:03;;;;;;;0.63;0.63;;;;;;;;;;10334341;28;20615;-76
2023/10/26 10:14:07;;;;;;;0.57;0.50;;;;;;;;;;10338895;28;20050;-77
2023/10/26 10:19:22;;;;;;;0.47;0.47;;;;;;;;;;10333691;28;20046;-76
2023/10/26 10:24:49;;;;;;;1.10;0.40;;;;;;;;;;10333803;28;20054;-77
2023/10/26 10:29:56;;;;;;;0.40;0.35;;;;;;;;;;10315388;28;20085;-77
2023/10/26 10:35:05;;;;;;;1.02;0.38;;;;;;;;;;10339154;28;20419;-77
2023/10/26 10:40:13;;;;;;;0.30;0.30;;;;;;;;;;10333230;28;20054;-76
2023/10/26 10:45:17;;;;;;;0.30;0.30;;;;;;;;;;10338239;28;20054;-76
2023/10/26 10:50:23;;;;;;;0.60;0.40;;;;;;;;;;10331089;28;20046;-76
2023/10/26 10:55:28;;;;;;;1.60;0.50;;;;;;;;;;10331002;28;20670;-76
2023/10/26 11:00:45;;;;;;;1.17;0.50;;;;;;;;;;10339006;28;20112;-77
2023/10/26 11:05:50;;;;;;;0.55;0.55;;;;;;;;;;10333971;28;20058;-76
2023/10/26 11:10:54;;;;;;;0.80;0.50;;;;;;;;;;10338065;28;20047;-76
2023/10/26 11:15:57;;;;;;;0.60;0.38;;;;;;;;;;10336563;28;20604;-76
2023/10/26 11:21:02;;;;;;;1.05;0.40;;;;;;;;;;10335002;28;20046;-76
2023/10/26 11:26:14;;;;;;;1.48;0.60;;;;;;;;;;10332701;28;20089;-76
2023/10/26 11:31:35;;;;;;;0.95;0.75;;;;;;;;;;10329811;28;20089;-76
2023/10/26 11:36:45;;;;;;;1.08;0.80;;;;;;;;;;10337681;28;20050;-76
2023/10/26 11:41:54;;;;;;;0.77;0.73;;;;;;;;;;10332700;28;20066;-76
2023/10/26 11:46:58;;;;;;;1.65;0.70;;;;;;;;;;10329256;28;20054;-76
2023/10/26 11:52:03;;;;;;;0.93;0.70;;;;;;;;;;10327126;28;20042;-76
2023/10/26 11:57:06;;;;;;;0.80;0.65;;;;;;;;;;10310327;28;20058;-76
2023/10/26 12:02:09;;;;;;;1.52;0.63;;;;;;;;;;10327284;28;20048;-76
2023/10/26 12:07:14;;;;;;;1.25;0.60;;;;;;;;;;10325800;28;20042;-76
2023/10/26 12:12:17;;;;;;;1.77;1.00;;;;;;;;;;10307314;28;20062;-76
2023/10/26 12:17:20;;;;;;;1.35;1.00;;;;;;;;;;10327993;28;20058;-76
2023/10/26 12:22:25;;;;;;;2.72;0.95;;;;;;;;;;10317754;28;20050;-76
2023/10/26 12:27:28;;;;;;;1.92;1.20;;;;;;;;;;10332667;28;20536;-76
2023/10/26 12:32:32;;;;;;;1.38;1.13;;;;;;;;;;10327001;28;20053;-76
2023/10/26 12:37:37;;;;;;;2.05;1.08;;;;;;;;;;10312213;28;20057;-76
2023/10/26 12:42:41;;;;;;;1.48;0.88;;;;;;;;;;10307638;28;20064;-76
2023/10/26 12:47:44;;;;;;;1.55;1.10;;;;;;;;;;10326527;28;20583;-77
2023/10/26 12:52:50;;;;;;;0.63;0.55;;;;;;;;;;10326116;28;20408;-76
2023/10/26 12:57:54;;;;;;;1.67;1.08;;;;;;;;;;10325798;28;20406;-77
2023/10/26 13:02:58;;;;;;;1.05;0.95;;;;;;;;;;10325334;28;20054;-76
2023/10/26 13:08:03;;;;;;;1.67;0.98;;;;;;;;;;10329799;28;20594;-76
2023/10/26 13:13:06;;;;;;;1.08;0.73;;;;;;;;;;10337559;28;20038;-77
2023/10/26 13:18:10;;;;;;;2.25;0.80;;;;;;;;;;10331169;28;20054;-76
2023/10/26 13:23:14;;;;;;;1.10;0.90;;;;;;;;;;10330427;28;20134;-76
2023/10/26 13:28:17;;;;;;;1.40;1.02;;;;;;;;;;10312660;28;20046;-76
2023/10/26 13:33:21;;;;;;;1.15;0.88;;;;;;;;;;10329078;28;20073;-76
2023/10/26 13:38:25;;;;;;;0.70;0.60;;;;;;;;;;10328722;28;20042;-76
2023/10/26 13:43:29;;;;;;;1.63;0.80;;;;;;;;;;10335783;23;20500;-74
2023/10/26 13:48:32;;;;;;;1.17;0.90;;;;;;;;;;10330403;28;20047;-74
2023/10/26 13:53:37;;;;;;;0.88;0.80;;;;;;;;;;10314159;28;20042;-74
2023/10/26 13:58:40;;;;;;;1.00;0.80;;;;;;;;;;10327572;28;20066;-74
2023/10/26 14:03:43;;;;;;;1.50;0.70;;;;;;;;;;10322762;28;20142;-74
2023/10/26 14:08:48;;;;;;;3.28;1.27;;;;;;;;;;10321382;28;20505;-74
2023/10/26 14:13:52;;;;;;;2.40;0.82;;;;;;;;;;10323367;28;20054;-74
2023/10/26 14:18:55;;;;;;;0.98;0.80;;;;;;;;;;10334095;28;20046;-74
2023/10/26 14:24:00;;;;;;;1.40;0.90;;;;;;;;;;10344691;28;20062;-74
2023/10/26 14:29:03;;;;;;;2.78;1.10;;;;;;;;;;10340402;28;20069;-74
2023/10/26 14:34:07;;;;;;;1.23;1.13;;;;;;;;;;10333691;28;20050;-74
2023/10/26 14:39:11;;;;;;;0.70;0.70;;;;;;;;;;10342038;28;20053;-74
2023/10/26 14:44:15;;;;;;;1.42;0.82;;;;;;;;;;10333127;28;20065;-74
2023/10/26 14:49:18;;;;;;;1.67;1.33;;;;;;;;;;10323518;28;20089;-74
2023/10/26 14:54:24;;;;;;;2.10;1.23;;;;;;;;;;10337782;28;20132;-74
2023/10/26 14:59:27;;;;;;;2.17;1.47;;;;;;;;;;10341179;28;20105;-74
2023/10/26 15:04:30;;;;;;;2.83;1.90;;;;;;;;;;10341451;28;20289;-74
2023/10/26 15:09:37;;;;;;;2.38;1.70;;;;;;;;;;10339374;28;20102;-74
2023/10/26 15:14:41;;;;;;;1.30;1.10;;;;;;;;;;10332170;28;20042;-74
2023/10/26 15:19:44;;;;;;;1.30;1.10;;;;;;;;;;10327881;28;20431;-74
2023/10/26 15:24:49;;;;;;;1.55;1.00;;;;;;;;;;10330054;28;20468;-74
2023/10/26 15:29:52;;;;;;;1.15;0.80;;;;;;;;;;10327320;28;20046;-74
2023/10/26 15:34:56;;;;;;;1.63;0.88;;;;;;;;;;10333089;28;20053;-74
2023/10/26 15:40:01;;;;;;;1.40;0.60;;;;;;;;;;10319047;28;20078;-75
2023/10/26 15:45:05;;;;;;;1.92;0.93;;;;;;;;;;10320835;28;20287;-74
2023/10/26 15:50:11;;;;;;;2.53;1.02;;;;;;;;;;10332910;28;20054;-75
2023/10/26 15:55:16;;;;;;;2.53;0.95;;;;;;;;;;10330588;28;20132;-74
2023/10/26 16:00:20;;;;;;;1.13;0.95;;;;;;;;;;10330467;28;20128;-75
2023/10/26 16:05:24;;;;;;;1.80;0.93;;;;;;;;;;10326529;28;20468;-75
2023/10/26 16:10:28;;;;;;;1.20;0.80;;;;;;;;;;10326041;28;20129;-75
2023/10/26 16:15:32;;;;;;;2.50;1.30;;;;;;;;;;10307001;28;20593;-75
2023/10/26 16:20:35;;;;;;;1.80;1.35;;;;;;;;;;10330586;28;20094;-75
2023/10/26 16:25:40;;;;;;;1.33;1.08;;;;;;;;;;10323683;28;20046;-75
2023/10/26 16:30:44;;;;;;;3.25;1.50;;;;;;;;;;10324507;28;20074;-75
2023/10/26 16:35:47;;;;;;;1.40;1.13;;;;;;;;;;10324202;28;20049;-75
2023/10/26 16:40:53;;;;;;;1.60;0.93;;;;;;;;;;10306036;28;20415;-75
2023/10/26 16:45:56;;;;;;;1.55;1.17;;;;;;;;;;10319418;28;20090;-75
2023/10/26 16:51:00;;;;;;;2.00;1.35;;;;;;;;;;10306083;28;20046;-75
2023/10/26 16:56:07;;;;;;;1.63;1.40;;;;;;;;;;10326585;28;20046;-75
2023/10/26 17:01:11;;;;;;;1.30;0.93;;;;;;;;;;10323959;28;20084;-75
2023/10/26 17:06:14;;;;;;;1.02;0.90;;;;;;;;;;10323546;28;20061;-76
2023/10/26 17:11:19;;;;;;;2.03;1.65;;;;;;;;;;10322241;28;20054;-76
2023/10/26 17:16:22;;;;;;;2.65;1.80;;;;;;;;;;10303532;28;20046;-76
2023/10/26 17:21:26;;;;;;;2.08;1.50;;;;;;;;;;10322167;28;20082;-75
2023/10/26 17:26:31;;;;;;;1.83;1.30;;;;;;;;;;10335177;28;20129;-75
2023/10/26 17:31:34;;;;;;;1.35;1.13;;;;;;;;;;10323925;28;20050;-76
2023/10/26 17:36:37;;;;;;;1.52;1.35;;;;;;;;;;10323138;28;20144;-75
2023/10/26 17:41:43;;;;;;;3.15;1.83;;;;;;;;;;10323598;28;20058;-76
2023/10/26 17:46:46;;;;;;;3.30;1.65;;;;;;;;;;10317815;28;20054;-76
2023/10/26 17:51:50;;;;;;;1.65;1.23;;;;;;;;;;10328372;28;20482;-76
2023/10/26 17:56:55;;;;;;;1.42;1.20;;;;;;;;;;10330500;28;20050;-76
2023/10/26 18:02:04;;;;;;;2.88;1.50;;;;;;;;;;10329084;28;20043;-76
2023/10/26 18:07:14;;;;;;;3.20;1.10;;;;;;;;;;10331082;28;20053;-76
2023/10/26 18:12:19;;;;;;;1.80;1.42;;;;;;;;;;10330561;28;20053;-76
2023/10/26 18:17:23;;;;;;;1.20;1.00;;;;;;;;;;10325757;28;20051;-76
2023/10/26 18:22:27;;;;;;;0.90;0.88;;;;;;;;;;10333473;28;20073;-76
2023/10/26 18:27:32;;;;;;;2.15;1.10;;;;;;;;;;10332300;28;20050;-75
2023/10/26 18:32:35;;;;;;;1.63;0.90;;;;;;;;;;10328928;28;20057;-75
2023/10/26 18:37:41;;;;;;;1.73;1.40;;;;;;;;;;10330334;28;20093;-76
2023/10/26 18:42:46;;;;;;;3.33;1.40;;;;;;;;;;10322462;28;20054;-76
2023/10/26 18:47:52;;;;;;;2.97;2.05;;;;;;;;;;10327392;28;20050;-75
2023/10/26 18:52:55;;;;;;;2.40;1.92;;;;;;;;;;10326900;28;20085;-76
2023/10/26 18:58:00;;;;;;;2.80;1.80;;;;;;;;;;10307104;28;20046;-76
2023/10/26 19:03:04;;;;;;;4.13;1.90;;;;;;;;;;10326956;28;20519;-76
2023/10/26 19:08:08;;;;;;;2.35;1.60;;;;;;;;;;10308373;28;20081;-76
2023/10/26 19:13:13;;;;;;;2.08;1.38;;;;;;;;;;10327643;28;20073;-76
2023/10/26 19:18:16;;;;;;;1.73;1.30;;;;;;;;;;10329220;28;20057;-75
2023/10/26 19:23:21;;;;;;;2.38;1.20;;;;;;;;;;10324411;28;20042;-76
2023/10/26 19:28:26;;;;;;;1.75;1.02;;;;;;;;;;10323702;28;20093;-76
2023/10/26 19:33:29;;;;;;;1.23;0.82;;;;;;;;;;10330116;28;20093;-76
2023/10/26 19:38:33;;;;;;;1.27;1.02;;;;;;;;;;10331237;28;20058;-76
2023/10/26 19:43:38;;;;;;;1.40;1.17;;;;;;;;;;10322589;23;20059;-78
2023/10/26 19:48:41;;;;;;;1.98;0.90;;;;;;;;;;10254837;28;20055;-78
2023/10/26 19:53:47;;;;;;;1.60;0.88;;;;;;;;;;10256978;28;20495;-78
2023/10/26 19:58:51;;;;;;;1.13;0.90;;;;;;;;;;10254577;28;20055;-78
2023/10/26 20:03:55;;;;;;;1.15;0.82;;;;;;;;;;10256003;28;20047;-78
2023/10/26 20:08:58;;;;;;;2.13;0.95;;;;;;;;;;10256432;28;20235;-78
2023/10/26 20:14:03;;;;;;;1.40;1.20;;;;;;;;;;10252949;28;20544;-77
2023/10/26 20:19:06;;;;;;;3.28;1.00;;;;;;;;;;10254085;28;20047;-77
2023/10/26 20:24:11;;;;;;;2.80;1.02;;;;;;;;;;10239622;28;20073;-78
2023/10/26 20:29:16;;;;;;;3.65;1.13;;;;;;;;;;10253552;28;20055;-77
2023/10/26 20:34:21;;;;;;;3.75;1.05;;;;;;;;;;10258157;28;20043;-78
2023/10/26 20:39:25;;;;;;;3.53;0.98;;;;;;;;;;10245641;28;20066;-78
2023/10/26 20:44:30;;;;;;;3.17;0.95;;;;;;;;;;10257071;28;20055;-78
2023/10/26 20:49:33;;;;;;;2.13;0.82;;;;;;;;;;10237612;28;20069;-78
2023/10/26 20:54:37;;;;;;;3.40;1.08;;;;;;;;;;10235650;28;20055;-78
2023/10/26 20:59:42;;;;;;;3.72;0.95;;;;;;;;;;10254419;28;20059;-78
2023/10/26 21:04:47;;;;;;;2.08;1.00;;;;;;;;;;10250055;28;20079;-78
2023/10/26 21:09:50;;;;;;;2.45;1.05;;;;;;;;;;10253241;28;20501;-77
2023/10/26 21:14:56;;;;;;;3.42;1.40;;;;;;;;;;10248537;28;20051;-78
2023/10/26 21:19:59;;;;;;;4.00;0.80;;;;;;;;;;10256863;28;20061;-78
2023/10/26 21:25:04;;;;;;;2.47;1.00;;;;;;;;;;10258024;28;20055;-77
2023/10/26 21:30:10;;;;;;;3.08;0.85;;;;;;;;;;10250901;28;20051;-78
2023/10/26 21:35:13;;;;;;;2.28;0.77;;;;;;;;;;10255271;28;20051;-78
2023/10/26 21:40:16;;;;;;;2.15;0.80;;;;;;;;;;10248456;28;20051;-77
2023/10/26 21:45:21;;;;;;;2.30;1.33;;;;;;;;;;10245342;28;20054;-78
2023/10/26 21:50:25;;;;;;;3.67;1.38;;;;;;;;;;10247689;28;20059;-78
2023/10/26 21:55:29;;;;;;;5.35;1.27;;;;;;;;;;10231629;28;20119;-77
2023/10/26 22:00:35;;;;;;;1.98;1.20;;;;;;;;;;10245238;28;20051;-78
2023/10/26 22:05:39;;;;;;;;;;;;;;;;;;10248843;28;20055;-77
2023/10/26 22:10:42;;;;;;;3.25;1.17;;;;;;;;;;10235011;28;20403;-78
2023/10/26 22:15:48;;;;;;;2.97;1.42;;;;;;;;;;10246797;28;20058;-78
2023/10/26 22:20:52;;;;;;;2.27;0.93;;;;;;;;;;10249250;28;20055;-77
2023/10/26 22:25:58;;;;;;;3.78;1.00;;;;;;;;;;10249486;28;20564;-78
2023/10/26 22:31:04;;;;;;;2.78;1.50;;;;;;;;;;10251944;28;20659;-78
2023/10/26 22:36:09;;;;;;;2.63;0.90;;;;;;;;;;10248969;28;20047;-78
2023/10/26 22:41:12;;;;;;;1.75;1.10;;;;;;;;;;10255927;28;20823;-77
2023/10/26 22:46:17;;;;;;;3.08;1.02;;;;;;;;;;10256148;28;20050;-77
2023/10/26 22:51:20;;;;;;;1.63;0.88;;;;;;;;;;10252060;28;20800;-77
2023/10/26 22:56:24;;;;;;;3.95;1.00;;;;;;;;;;10252058;28;20126;-77
2023/10/26 23:01:29;;;;;;;1.98;1.00;;;;;;;;;;10257727;28;20091;-78
2023/10/26 23:06:33;;;;;;;2.17;0.80;;;;;;;;;;10236826;28;20051;-77
2023/10/26 23:11:36;;;;;;;1.85;0.80;;;;;;;;;;10254018;28;20055;-78
2023/10/26 23:16:46;;;;;;;2.10;0.90;;;;;;;;;;10282060;28;20177;-78
2023/10/26 23:21:49;;;;;;;3.47;0.80;;;;;;;;;;10278506;28;20127;-77
2023/10/26 23:26:53;;;;;;;4.70;1.42;;;;;;;;;;10267575;28;20062;-77
2023/10/26 23:31:58;;;;;;;2.10;1.08;;;;;;;;;;10237521;28;20131;-77
2023/10/26 23:37:01;;;;;;;2.35;1.00;;;;;;;;;;10234689;28;20051;-77
2023/10/26 23:42:05;;;;;;;3.38;0.95;;;;;;;;;;10253771;28;20461;-77
2023/10/26 23:47:11;;;;;;;1.70;0.90;;;;;;;;;;10248108;28;20055;-77
2023/10/26 23:52:15;;;;;;;;;;;;;;;;;;10249689;28;20095;-78
2023/10/26 23:57:18;;;;;;;3.25;1.05;;;;;;;;;;10258862;28;19926;-78
